createdAt,value
2023-04-23T00:00:02.830Z,47.13
2023-04-23T00:01:39.522Z,47.10
2023-04-23T00:03:10.573Z,47.41
2023-04-23T00:04:36.682Z,47.45
2023-04-23T00:05:59.982Z,47.59
2023-04-23T00:07:21.531Z,47.46
2023-04-23T00:08:43.952Z,47.33
2023-04-23T00:10:09.090Z,47.27
2023-04-23T00:11:32.124Z,47.34
2023-04-23T00:12:54.854Z,47.49
2023-04-23T00:14:16.520Z,47.68
2023-04-23T00:15:39.378Z,47.48
2023-04-23T00:17:00.816Z,47.48
2023-04-23T00:18:24.892Z,47.82
2023-04-23T00:19:47.633Z,47.57
2023-04-23T00:21:10.045Z,47.91
2023-04-23T00:22:31.441Z,48.29
2023-04-23T00:23:53.563Z,48.23
2023-04-23T00:25:15.012Z,48.30
2023-04-23T00:26:37.474Z,48.37
2023-04-23T00:27:58.843Z,48.46
2023-04-23T00:29:21.223Z,48.43
2023-04-23T00:30:45.218Z,48.52
2023-04-23T00:32:07.928Z,48.60
2023-04-23T00:33:31.098Z,48.68
2023-04-23T00:34:54.657Z,48.93
2023-04-23T00:36:16.972Z,48.88
2023-04-23T00:37:39.412Z,49.14
2023-04-23T00:39:00.629Z,49.25
2023-04-23T00:40:26.690Z,49.26
2023-04-23T00:41:48.473Z,49.28
2023-04-23T00:43:11.738Z,49.66
2023-04-23T00:44:33.434Z,49.70
2023-04-23T00:45:56.026Z,49.78
2023-04-23T00:47:17.717Z,49.73
2023-04-23T00:48:42.963Z,49.52
2023-04-23T00:50:05.011Z,49.43
2023-04-23T00:51:32.473Z,49.77
2023-04-23T00:52:55.319Z,49.94
2023-04-23T00:54:16.567Z,50.04
2023-04-23T00:55:49.699Z,49.97
2023-04-23T00:57:12.052Z,49.98
2023-04-23T00:58:37.970Z,50.29
2023-04-23T01:00:14.140Z,50.42
2023-04-23T01:01:43.207Z,50.55
2023-04-23T01:03:11.716Z,50.62
2023-04-23T01:04:36.661Z,50.58
2023-04-23T01:06:02.234Z,50.69
2023-04-23T01:07:28.488Z,50.55
2023-04-23T01:08:53.037Z,50.68
2023-04-23T01:10:14.583Z,50.85
2023-04-23T01:11:40.138Z,50.63
2023-04-23T01:13:01.602Z,50.91
2023-04-23T01:14:25.117Z,50.78
2023-04-23T01:15:47.557Z,50.73
2023-04-23T01:17:09.053Z,51.02
2023-04-23T01:18:31.642Z,51.03
2023-04-23T01:19:55.650Z,51.27
2023-04-23T01:21:22.290Z,51.26
2023-04-23T01:22:44.990Z,51.19
2023-04-23T01:24:07.677Z,51.19
2023-04-23T01:25:29.472Z,51.26
2023-04-23T01:26:55.511Z,50.77
2023-04-23T01:28:19.469Z,50.89
2023-04-23T01:29:51.011Z,50.77
2023-04-23T01:31:17.259Z,50.86
2023-04-23T01:32:40.925Z,51.06
2023-04-23T01:34:06.360Z,51.07
2023-04-23T01:35:31.251Z,51.36
2023-04-23T01:37:05.781Z,51.06
2023-04-23T01:38:41.148Z,50.97
2023-04-23T01:40:11.302Z,51.21
2023-04-23T01:41:33.234Z,51.12
2023-04-23T01:42:57.576Z,51.24
2023-04-23T01:44:25.327Z,51.26
2023-04-23T01:45:55.802Z,51.43
2023-04-23T01:47:19.828Z,51.38
2023-04-23T01:48:42.797Z,51.44
2023-04-23T01:50:10.932Z,51.46
2023-04-23T01:51:33.317Z,51.62
2023-04-23T01:52:55.176Z,51.41
2023-04-23T01:54:22.709Z,51.39
2023-04-23T01:55:57.715Z,51.40
2023-04-23T01:57:28.706Z,51.29
2023-04-23T01:58:52.015Z,51.37
2023-04-23T02:00:29.483Z,51.66
2023-04-23T02:01:50.833Z,51.62
2023-04-23T02:03:18.614Z,51.67
2023-04-23T02:04:47.213Z,51.70
2023-04-23T02:06:10.307Z,51.68
2023-04-23T02:07:37.036Z,51.76
2023-04-23T02:09:00.719Z,52.09
2023-04-23T02:10:28.498Z,52.04
2023-04-23T02:11:50.044Z,51.91
2023-04-23T02:13:12.526Z,51.90
2023-04-23T02:14:35.069Z,52.23
2023-04-23T02:16:00.528Z,52.17
2023-04-23T02:17:23.253Z,52.41
2023-04-23T02:18:51.333Z,52.19
2023-04-23T02:20:18.157Z,52.09
2023-04-23T02:21:45.469Z,52.05
2023-04-23T02:23:11.886Z,52.23
2023-04-23T02:24:36.602Z,52.36
2023-04-23T02:26:00.617Z,52.48
2023-04-23T02:27:23.610Z,52.41
2023-04-23T02:28:48.384Z,52.52
2023-04-23T02:30:11.721Z,52.58
2023-04-23T02:31:37.048Z,52.53
2023-04-23T02:33:22.690Z,52.59
2023-04-23T02:34:46.534Z,52.67
2023-04-23T02:36:10.808Z,52.83
2023-04-23T02:37:33.093Z,52.87
2023-04-23T02:38:55.076Z,52.66
2023-04-23T02:40:16.525Z,52.84
2023-04-23T02:41:40.205Z,52.89
2023-04-23T02:43:01.462Z,52.82
2023-04-23T02:44:23.942Z,52.72
2023-04-23T02:46:08.508Z,53.05
2023-04-23T02:47:34.671Z,52.69
2023-04-23T02:48:55.574Z,52.75
2023-04-23T02:50:17.924Z,52.80
2023-04-23T02:51:41.542Z,52.97
2023-04-23T02:53:03.746Z,53.08
2023-04-23T02:54:25.969Z,53.19
2023-04-23T02:55:48.988Z,52.88
2023-04-23T02:57:14.516Z,53.16
2023-04-23T02:58:36.139Z,53.33
2023-04-23T02:59:58.484Z,52.93
2023-04-23T03:01:31.261Z,52.90
2023-04-23T03:02:54.822Z,52.79
2023-04-23T03:04:18.332Z,52.92
2023-04-23T03:05:39.853Z,53.18
2023-04-23T03:07:03.789Z,53.22
2023-04-23T03:08:28.440Z,53.40
2023-04-23T03:09:49.562Z,53.40
2023-04-23T03:11:12.022Z,53.54
2023-04-23T03:12:35.095Z,53.62
2023-04-23T03:14:01.880Z,53.68
2023-04-23T03:15:26.010Z,53.67
2023-04-23T03:16:51.165Z,53.66
2023-04-23T03:18:12.787Z,53.81
2023-04-23T03:19:36.617Z,53.68
2023-04-23T03:21:00.455Z,53.89
2023-04-23T03:22:23.465Z,53.89
2023-04-23T03:23:44.623Z,53.74
2023-04-23T03:25:11.527Z,54.17
2023-04-23T03:26:33.440Z,54.21
2023-04-23T03:27:57.297Z,54.03
2023-04-23T03:29:22.266Z,54.12
2023-04-23T03:30:44.680Z,54.14
2023-04-23T03:32:07.099Z,54.15
2023-04-23T03:33:29.247Z,54.09
2023-04-23T03:34:51.005Z,54.21
2023-04-23T03:36:17.841Z,54.16
2023-04-23T03:37:42.861Z,54.46
2023-04-23T03:39:05.960Z,53.95
2023-04-23T03:40:50.569Z,54.24
2023-04-23T03:42:12.032Z,54.39
2023-04-23T03:43:37.948Z,54.26
2023-04-23T03:44:59.668Z,54.22
2023-04-23T03:46:22.386Z,54.39
2023-04-23T03:47:47.962Z,54.45
2023-04-23T03:49:13.958Z,54.26
2023-04-23T03:50:40.522Z,54.44
2023-04-23T03:52:41.484Z,54.42
2023-04-23T03:54:10.931Z,54.60
2023-04-23T03:55:52.956Z,54.45
2023-04-23T03:57:17.220Z,54.49
2023-04-23T03:59:01.082Z,54.40
2023-04-23T04:00:22.372Z,54.73
2023-04-23T04:01:44.881Z,54.62
2023-04-23T04:03:09.128Z,54.80
2023-04-23T04:04:31.114Z,54.63
2023-04-23T04:05:54.109Z,54.81
2023-04-23T04:07:15.888Z,54.71
2023-04-23T04:08:39.845Z,54.49
2023-04-23T04:10:03.423Z,54.67
2023-04-23T04:11:26.366Z,54.55
2023-04-23T04:12:48.200Z,54.58
2023-04-23T04:14:11.767Z,54.74
2023-04-23T04:15:33.820Z,54.53
2023-04-23T04:16:57.194Z,54.58
2023-04-23T04:18:19.484Z,54.67
2023-04-23T04:19:45.593Z,54.35
2023-04-23T04:21:06.720Z,54.58
2023-04-23T04:22:29.133Z,54.63
2023-04-23T04:23:51.244Z,54.77
2023-04-23T04:25:21.046Z,54.61
2023-04-23T04:26:42.205Z,54.78
2023-04-23T04:28:05.237Z,54.44
2023-04-23T04:29:27.660Z,54.46
2023-04-23T04:30:50.412Z,54.54
2023-04-23T04:32:13.971Z,54.67
2023-04-23T04:33:39.911Z,54.63
2023-04-23T04:35:02.758Z,54.37
2023-04-23T04:36:25.419Z,54.45
2023-04-23T04:37:48.236Z,54.36
2023-04-23T04:39:10.470Z,54.35
2023-04-23T04:40:31.659Z,54.36
2023-04-23T04:41:54.653Z,54.23
2023-04-23T04:43:17.339Z,54.45
2023-04-23T04:44:41.996Z,54.29
2023-04-23T04:46:07.320Z,54.31
2023-04-23T04:47:29.298Z,54.27
2023-04-23T04:48:53.197Z,53.96
2023-04-23T04:50:15.767Z,54.13
2023-04-23T04:51:37.907Z,54.01
2023-04-23T04:52:59.979Z,54.23
2023-04-23T04:54:21.696Z,54.18
2023-04-23T04:55:44.100Z,54.13
2023-04-23T04:57:05.154Z,54.07
2023-04-23T04:58:27.526Z,54.08
2023-04-23T05:00:27.849Z,53.75
2023-04-23T05:01:49.953Z,53.77
2023-04-23T05:03:14.113Z,53.57
2023-04-23T05:04:37.039Z,53.68
2023-04-23T05:05:59.133Z,53.50
2023-04-23T05:07:25.904Z,53.49
2023-04-23T05:08:50.943Z,53.47
2023-04-23T05:10:16.412Z,53.25
2023-04-23T05:11:38.836Z,53.18
2023-04-23T05:13:03.984Z,53.17
2023-04-23T05:14:27.013Z,53.01
2023-04-23T05:15:54.628Z,53.16
2023-04-23T05:17:19.009Z,52.93
2023-04-23T05:18:40.357Z,52.95
2023-04-23T05:20:06.339Z,52.83
2023-04-23T05:21:31.766Z,52.50
2023-04-23T05:22:52.757Z,52.47
2023-04-23T05:24:17.798Z,52.35
2023-04-23T05:25:42.077Z,52.20
2023-04-23T05:27:04.145Z,52.01
2023-04-23T05:28:28.476Z,52.09
2023-04-23T05:29:50.906Z,52.04
2023-04-23T05:31:14.566Z,51.90
2023-04-23T05:32:36.062Z,51.81
2023-04-23T05:33:58.350Z,51.48
2023-04-23T05:35:19.840Z,51.14
2023-04-23T05:36:44.466Z,50.96
2023-04-23T05:38:08.195Z,50.49
2023-04-23T05:39:30.267Z,50.62
2023-04-23T05:40:52.476Z,50.31
2023-04-23T05:42:18.565Z,50.02
2023-04-23T05:43:43.929Z,49.52
2023-04-23T05:45:09.437Z,49.22
2023-04-23T05:46:38.471Z,48.71
2023-04-23T05:48:00.208Z,48.35
2023-04-23T05:49:22.394Z,48.49
2023-04-23T05:50:52.103Z,48.10
2023-04-23T05:52:16.562Z,47.92
2023-04-23T05:53:39.962Z,47.59
2023-04-23T05:55:01.098Z,47.68
2023-04-23T05:56:23.678Z,47.32
2023-04-23T05:57:45.957Z,46.97
2023-04-23T05:59:08.328Z,46.98
2023-04-23T06:00:35.583Z,46.79
2023-04-23T06:01:59.558Z,46.27
2023-04-23T06:03:37.285Z,45.87
2023-04-23T06:07:55.757Z,45.32
2023-04-23T06:09:26.976Z,45.19
2023-04-23T06:10:54.543Z,44.88
2023-04-23T06:12:27.118Z,44.63
2023-04-23T06:14:00.437Z,44.56
2023-04-23T06:15:27.383Z,44.11
2023-04-23T06:16:51.210Z,43.95
2023-04-23T06:18:18.397Z,43.50
2023-04-23T06:19:48.355Z,43.03
2023-04-23T06:21:13.888Z,43.02
2023-04-23T06:22:38.553Z,43.12
2023-04-23T06:24:04.281Z,42.73
2023-04-23T06:25:32.230Z,42.94
2023-04-23T06:26:53.393Z,42.63
2023-04-23T06:28:37.630Z,42.26
2023-04-23T06:30:30.294Z,42.19
2023-04-23T06:31:58.632Z,41.96
2023-04-23T06:33:24.150Z,41.75
2023-04-23T06:34:59.593Z,41.41
2023-04-23T06:36:28.103Z,41.11
2023-04-23T06:38:02.911Z,40.99
2023-04-23T06:39:25.344Z,40.75
2023-04-23T06:41:15.260Z,40.61
2023-04-23T06:42:57.600Z,40.40
2023-04-23T06:44:40.525Z,40.48
2023-04-23T06:46:03.449Z,39.88
2023-04-23T06:47:26.152Z,39.69
2023-04-23T06:48:49.868Z,39.74
2023-04-23T06:50:12.478Z,39.44
2023-04-23T06:51:36.914Z,39.41
2023-04-23T06:52:58.878Z,38.89
2023-04-23T06:54:29.888Z,38.68
2023-04-23T06:56:09.012Z,38.61
2023-04-23T06:57:45.066Z,38.64
2023-04-23T06:59:18.764Z,38.29
2023-04-23T07:00:44.188Z,38.19
2023-04-23T07:02:07.404Z,37.77
2023-04-23T07:03:32.194Z,37.56
2023-04-23T07:05:43.860Z,37.42
2023-04-23T07:07:10.426Z,37.50
2023-04-23T07:08:35.362Z,36.97
2023-04-23T07:09:56.779Z,36.72
2023-04-23T07:11:21.701Z,36.36
2023-04-23T07:12:52.571Z,35.87
2023-04-23T07:14:34.471Z,35.86
2023-04-23T07:16:06.372Z,35.49
2023-04-23T07:17:28.807Z,35.59
2023-04-23T07:18:51.204Z,35.10
2023-04-23T07:20:15.424Z,34.97
2023-04-23T07:21:43.666Z,34.39
2023-04-23T07:23:05.251Z,33.93
2023-04-23T07:24:27.827Z,33.70
2023-04-23T07:26:13.217Z,33.23
2023-04-23T07:27:51.337Z,32.91
2023-04-23T07:29:18.196Z,32.39
2023-04-23T07:30:42.733Z,32.27
2023-04-23T07:32:04.155Z,31.87
2023-04-23T07:33:26.779Z,31.53
2023-04-23T07:35:00.695Z,31.39
2023-04-23T07:36:24.874Z,31.11
2023-04-23T07:38:06.194Z,30.96
2023-04-23T07:39:37.283Z,30.70
2023-04-23T07:41:03.729Z,30.68
2023-04-23T07:42:29.036Z,30.47
2023-04-23T07:43:51.407Z,29.97
2023-04-23T07:45:14.080Z,29.67
2023-04-23T07:46:38.434Z,29.10
2023-04-23T07:48:02.496Z,28.73
2023-04-23T07:49:25.684Z,28.29
2023-04-23T07:51:39.708Z,28.17
2023-04-23T07:53:09.968Z,28.42
2023-04-23T07:54:47.712Z,28.08
2023-04-23T07:56:10.665Z,27.11
2023-04-23T07:57:31.677Z,26.70
2023-04-23T07:58:56.734Z,26.24
2023-04-23T08:00:19.643Z,25.63
2023-04-23T08:01:42.283Z,25.23
2023-04-23T08:03:07.008Z,25.21
2023-04-23T08:04:30.147Z,25.00
2023-04-23T08:05:53.913Z,24.12
2023-04-23T08:07:16.584Z,24.02
2023-04-23T08:08:43.731Z,22.86
2023-04-23T08:10:09.294Z,22.87
2023-04-23T08:11:30.559Z,21.94
2023-04-23T08:12:52.850Z,20.55
2023-04-23T08:14:15.444Z,18.54
2023-04-23T08:15:38.027Z,16.78
2023-04-23T08:17:00.529Z,15.25
2023-04-23T08:18:29.665Z,13.88
2023-04-23T08:20:03.978Z,12.97
2023-04-23T08:21:29.853Z,12.36
2023-04-23T08:22:53.902Z,11.71
2023-04-23T08:24:17.955Z,10.63
2023-04-23T08:25:43.203Z,10.01
2023-04-23T08:27:04.412Z,9.69
2023-04-23T08:28:28.074Z,8.93
2023-04-23T08:29:50.398Z,8.41
2023-04-23T08:31:26.587Z,7.80
2023-04-23T08:33:02.314Z,6.87
2023-04-23T08:35:02.486Z,6.99
2023-04-23T08:36:24.589Z,6.26
2023-04-23T08:37:45.721Z,5.15
2023-04-23T08:39:08.373Z,5.17
2023-04-23T08:40:40.049Z,4.75
2023-04-23T08:42:21.774Z,5.19
2023-04-23T08:43:51.669Z,4.80
2023-04-23T08:47:33.797Z,5.52
2023-04-23T08:49:11.765Z,5.90
2023-04-23T08:51:10.050Z,6.58
2023-04-23T08:52:42.264Z,7.08
2023-04-23T08:54:05.523Z,7.72
2023-04-23T08:55:47.120Z,7.71
2023-04-23T08:57:10.166Z,8.27
2023-04-23T08:58:33.600Z,7.72
2023-04-23T09:00:00.432Z,7.90
2023-04-23T09:01:22.599Z,7.77
2023-04-23T09:02:48.246Z,7.88
2023-04-23T09:04:10.302Z,8.04
2023-04-23T09:05:34.215Z,7.46
2023-04-23T09:06:57.326Z,8.01
2023-04-23T09:08:38.313Z,7.84
2023-04-23T09:10:01.989Z,8.22
2023-04-23T09:11:42.429Z,8.11
2023-04-23T09:13:05.436Z,8.48
2023-04-23T09:14:33.045Z,8.25
2023-04-23T09:15:58.083Z,8.24
2023-04-23T09:17:23.327Z,8.47
2023-04-23T09:18:51.718Z,8.66
2023-04-23T09:20:18.015Z,9.28
2023-04-23T09:21:48.591Z,9.34
2023-04-23T09:23:10.810Z,9.78
2023-04-23T09:24:36.666Z,9.78
2023-04-23T09:26:00.860Z,9.91
2023-04-23T09:27:32.360Z,9.35
2023-04-23T09:29:03.709Z,9.47
2023-04-23T09:30:27.596Z,9.53
2023-04-23T09:31:51.598Z,8.87
2023-04-23T09:33:18.712Z,8.82
2023-04-23T09:34:42.720Z,8.80
2023-04-23T09:36:14.138Z,8.50
2023-04-23T09:37:38.354Z,8.00
2023-04-23T09:40:58.126Z,7.00
2023-04-23T09:42:23.601Z,6.73
2023-04-23T09:43:51.001Z,6.15
2023-04-23T09:45:14.087Z,5.40
2023-04-23T09:46:38.050Z,6.17
2023-04-23T09:48:04.141Z,6.10
2023-04-23T10:05:00.842Z,13.64
2023-04-23T10:06:47.054Z,14.01
2023-04-23T10:11:44.040Z,16.05
2023-04-23T10:13:42.770Z,16.62
2023-04-23T10:15:31.244Z,17.17
2023-04-23T10:18:20.474Z,17.57
2023-04-23T10:20:15.145Z,18.35
2023-04-23T10:24:25.838Z,19.04
2023-04-23T10:26:14.335Z,19.40
2023-04-23T10:28:03.754Z,20.05
2023-04-23T10:30:04.809Z,20.71
2023-04-23T10:31:30.565Z,21.01
2023-04-23T10:33:15.866Z,21.52
2023-04-23T10:35:01.985Z,21.95
2023-04-23T10:36:26.079Z,22.43
2023-04-23T10:37:51.223Z,22.46
2023-04-23T10:39:27.321Z,22.55
2023-04-23T10:40:56.680Z,22.47
2023-04-23T10:42:19.864Z,22.54
2023-04-23T10:43:42.701Z,22.65
2023-04-23T10:45:24.146Z,23.03
2023-04-23T10:47:41.551Z,23.10
2023-04-23T10:49:16.842Z,23.23
2023-04-23T10:51:02.384Z,23.27
2023-04-23T10:52:27.546Z,23.45
2023-04-23T10:53:48.394Z,23.38
2023-04-23T10:55:18.666Z,23.70
2023-04-23T10:57:12.551Z,23.65
2023-04-23T10:58:51.725Z,23.68
2023-04-23T11:00:24.983Z,23.86
2023-04-23T11:01:58.207Z,23.38
2023-04-23T11:03:43.197Z,23.72
2023-04-23T11:05:11.173Z,23.99
2023-04-23T11:07:05.719Z,23.64
2023-04-23T11:08:36.382Z,24.55
2023-04-23T11:10:01.254Z,24.55
2023-04-23T11:11:40.288Z,24.02
2023-04-23T11:13:23.874Z,24.26
2023-04-23T11:14:50.175Z,23.80
2023-04-23T11:16:21.266Z,23.88
2023-04-23T11:18:02.668Z,23.79
2023-04-23T11:19:28.167Z,23.86
2023-04-23T11:20:54.186Z,23.41
2023-04-23T11:22:20.702Z,24.49
2023-04-23T11:23:46.832Z,24.24
2023-04-23T11:25:12.189Z,23.89
2023-04-23T11:26:36.251Z,23.42
2023-04-23T11:28:01.789Z,23.52
2023-04-23T11:29:25.265Z,23.61
2023-04-23T11:30:52.631Z,23.44
2023-04-23T11:32:17.475Z,23.67
2023-04-23T11:33:46.144Z,23.56
2023-04-23T11:35:27.100Z,23.29
2023-04-23T11:37:29.253Z,23.83
2023-04-23T11:39:36.955Z,23.64
2023-04-23T11:40:59.230Z,23.62
2023-04-23T11:42:36.133Z,23.35
2023-04-23T11:43:59.846Z,23.19
2023-04-23T11:45:29.495Z,23.17
2023-04-23T11:46:52.477Z,23.23
2023-04-23T11:48:21.526Z,23.31
2023-04-23T11:49:56.975Z,22.95
2023-04-23T11:51:19.481Z,23.56
2023-04-23T11:52:42.731Z,23.48
2023-04-23T11:54:05.941Z,23.29
2023-04-23T11:55:30.952Z,23.63
2023-04-23T11:56:55.210Z,23.18
2023-04-23T11:58:20.533Z,23.31
2023-04-23T11:59:43.628Z,23.10
2023-04-23T12:01:11.243Z,23.12
2023-04-23T12:02:38.420Z,22.72
2023-04-23T12:04:02.635Z,23.40
2023-04-23T12:05:30.948Z,23.49
2023-04-23T12:06:54.512Z,23.07
2023-04-23T12:08:23.982Z,23.50
2023-04-23T12:09:48.658Z,23.57
2023-04-23T12:11:15.236Z,23.69
2023-04-23T12:12:42.246Z,23.88
2023-04-23T12:14:04.507Z,23.92
2023-04-23T12:15:44.442Z,23.99
2023-04-23T12:17:12.332Z,24.55
2023-04-23T12:18:35.865Z,24.48
2023-04-23T12:19:59.032Z,24.40
2023-04-23T12:21:21.113Z,24.55
2023-04-23T12:22:47.077Z,24.65
2023-04-23T12:24:09.475Z,25.00
2023-04-23T12:25:35.624Z,24.88
2023-04-23T12:27:03.380Z,24.95
2023-04-23T12:28:25.262Z,24.82
2023-04-23T12:29:56.994Z,25.22
2023-04-23T12:31:31.335Z,25.63
2023-04-23T12:33:09.813Z,25.51
2023-04-23T12:34:54.348Z,25.42
2023-04-23T12:36:19.731Z,25.63
2023-04-23T12:37:42.300Z,25.83
2023-04-23T12:39:24.329Z,25.53
2023-04-23T12:40:47.814Z,25.84
2023-04-23T12:42:12.040Z,26.11
2023-04-23T12:43:37.062Z,26.42
2023-04-23T12:45:08.547Z,26.57
2023-04-23T12:46:30.980Z,26.36
2023-04-23T12:47:53.264Z,26.54
2023-04-23T12:49:15.513Z,26.87
2023-04-23T12:52:58.354Z,27.13
2023-04-23T12:54:21.236Z,27.19
2023-04-23T12:55:45.990Z,27.51
2023-04-23T12:57:39.332Z,27.08
2023-04-23T12:59:17.755Z,27.13
2023-04-23T13:00:41.032Z,27.09
2023-04-23T13:02:40.135Z,27.29
2023-04-23T13:04:20.882Z,27.61
2023-04-23T13:05:43.531Z,27.76
2023-04-23T13:20:00.810Z,28.75
2023-04-23T13:23:46.302Z,28.74
2023-04-23T13:25:25.144Z,28.84
2023-04-23T13:27:03.898Z,28.79
2023-04-23T13:28:38.944Z,28.96
2023-04-23T13:30:03.061Z,28.87
2023-04-23T13:31:34.272Z,28.72
2023-04-23T13:32:58.640Z,28.91
2023-04-23T13:34:46.191Z,29.20
2023-04-23T13:36:20.593Z,29.43
2023-04-23T13:37:42.867Z,29.37
2023-04-23T13:39:07.448Z,29.43
2023-04-23T13:40:38.318Z,29.39
2023-04-23T13:42:13.368Z,29.61
2023-04-23T13:43:50.637Z,29.83
2023-04-23T13:45:14.936Z,29.84
2023-04-23T13:46:39.488Z,30.33
2023-04-23T13:48:31.840Z,30.26
2023-04-23T13:49:56.684Z,30.06
2023-04-23T13:53:04.951Z,30.22
2023-04-23T13:54:30.123Z,30.32
2023-04-23T13:55:58.675Z,30.46
2023-04-23T13:57:20.985Z,30.73
2023-04-23T13:59:18.056Z,30.63
2023-04-23T14:01:01.175Z,30.70
2023-04-23T14:02:26.956Z,30.92
2023-04-23T14:03:53.635Z,30.55
2023-04-23T14:06:00.685Z,30.96
2023-04-23T14:08:25.978Z,30.93
2023-04-23T14:10:24.696Z,31.20
2023-04-23T14:12:14.377Z,31.45
2023-04-23T14:13:40.191Z,31.04
2023-04-23T14:15:08.749Z,31.22
2023-04-23T14:16:41.021Z,31.29
2023-04-23T14:18:09.182Z,31.42
2023-04-23T14:19:40.165Z,31.48
2023-04-23T14:21:09.309Z,31.46
2023-04-23T14:25:25.725Z,31.74
2023-04-23T14:27:12.939Z,31.59
2023-04-23T14:31:47.057Z,32.16
2023-04-23T14:33:14.151Z,32.47
2023-04-23T14:36:15.368Z,32.08
2023-04-23T14:37:52.443Z,32.58
2023-04-23T14:39:58.275Z,32.42
2023-04-23T14:42:32.409Z,32.78
2023-04-23T14:46:25.526Z,33.08
2023-04-23T14:47:56.742Z,33.18
2023-04-23T14:49:27.502Z,33.52
2023-04-23T14:51:09.928Z,33.87
2023-04-23T14:53:19.696Z,33.90
2023-04-23T14:54:48.682Z,34.37
2023-04-23T14:56:24.719Z,34.46
2023-04-23T14:58:02.602Z,34.63
2023-04-23T14:59:49.534Z,34.83
2023-04-23T15:01:13.276Z,34.96
2023-04-23T15:02:36.203Z,35.16
2023-04-23T15:04:10.017Z,35.26
2023-04-23T15:06:19.146Z,35.43
2023-04-23T15:07:40.643Z,35.60
2023-04-23T15:09:03.507Z,36.22
2023-04-23T15:10:25.571Z,36.49
2023-04-23T15:11:52.256Z,36.57
2023-04-23T15:13:35.147Z,36.55
2023-04-23T15:15:03.632Z,36.76
2023-04-23T15:16:48.273Z,36.68
2023-04-23T15:18:40.735Z,36.78
2023-04-23T15:20:05.057Z,36.70
2023-04-23T15:21:28.049Z,36.96
2023-04-23T15:23:08.842Z,37.11
2023-04-23T15:24:48.699Z,37.11
2023-04-23T15:26:45.850Z,37.25
2023-04-23T15:28:09.580Z,37.22
2023-04-23T15:29:38.352Z,37.39
2023-04-23T15:31:59.819Z,37.50
2023-04-23T15:33:45.028Z,37.89
2023-04-23T15:35:21.303Z,38.13
2023-04-23T15:37:15.732Z,38.96
2023-04-23T15:38:47.614Z,39.27
2023-04-23T15:40:13.236Z,39.42
2023-04-23T15:41:48.516Z,40.01
2023-04-23T15:43:56.848Z,40.30
2023-04-23T15:45:46.306Z,40.78
2023-04-23T15:47:14.948Z,41.06
2023-04-23T15:48:50.269Z,41.35
2023-04-23T15:50:40.398Z,41.61
2023-04-23T15:52:17.227Z,41.81
2023-04-23T15:54:45.141Z,41.94
2023-04-23T15:56:30.950Z,42.07
2023-04-23T16:00:05.597Z,43.62
2023-04-23T16:01:56.705Z,44.42
2023-04-23T16:04:11.960Z,45.26
2023-04-23T16:06:20.578Z,45.01
2023-04-23T16:08:10.052Z,45.69
2023-04-23T16:10:03.222Z,45.79
2023-04-23T16:11:42.240Z,45.98
2023-04-23T16:13:09.312Z,46.25
2023-04-23T16:17:24.340Z,46.46
2023-04-23T16:21:29.297Z,46.29
2023-04-23T16:23:05.670Z,46.12
2023-04-23T16:25:16.213Z,46.12
2023-04-23T16:26:58.307Z,46.20
2023-04-23T16:29:29.613Z,46.31
2023-04-23T16:33:16.500Z,46.39
2023-04-23T16:34:41.154Z,46.61
2023-04-23T16:36:24.065Z,46.72
2023-04-23T16:38:12.235Z,46.83
2023-04-23T16:39:36.913Z,46.76
2023-04-23T16:41:35.183Z,46.96
2023-04-23T16:43:42.452Z,47.13
2023-04-23T16:45:19.288Z,47.40
2023-04-23T16:46:52.042Z,47.89
2023-04-23T16:48:32.376Z,48.62
2023-04-23T16:50:36.447Z,48.95
2023-04-23T16:52:12.240Z,49.48
2023-04-23T16:53:35.137Z,49.78
2023-04-23T16:55:00.350Z,50.48
2023-04-23T16:56:24.062Z,50.83
2023-04-23T16:57:50.425Z,51.10
2023-04-23T16:59:15.444Z,51.18
2023-04-23T17:17:34.166Z,51.52
2023-04-23T17:19:21.458Z,51.60
2023-04-23T17:20:46.026Z,51.62
2023-04-23T17:22:32.527Z,51.70
2023-04-23T17:24:00.194Z,51.76
2023-04-23T17:25:39.476Z,51.86
2023-04-23T17:27:14.398Z,52.01
2023-04-23T17:28:58.759Z,52.06
2023-04-23T17:30:31.833Z,52.14
2023-04-23T17:32:22.415Z,52.43
2023-04-23T17:34:29.776Z,52.44
2023-04-23T17:36:01.419Z,52.42
2023-04-23T17:37:41.558Z,52.78
2023-04-23T17:39:20.075Z,52.79
2023-04-23T17:40:48.353Z,53.02
2023-04-23T17:42:29.692Z,52.95
2023-04-23T17:43:53.466Z,53.10
2023-04-23T17:45:31.762Z,52.96
2023-04-23T17:47:21.874Z,53.17
2023-04-23T17:48:53.200Z,52.93
2023-04-23T17:50:47.099Z,52.93
2023-04-23T17:52:26.040Z,53.06
2023-04-23T17:53:50.717Z,52.98
2023-04-23T17:55:36.349Z,53.03
2023-04-23T17:59:10.330Z,52.82
2023-04-23T18:01:35.038Z,52.69
2023-04-23T18:04:04.174Z,52.56
2023-04-23T18:05:54.441Z,52.38
2023-04-23T18:07:23.148Z,52.60
2023-04-23T18:08:45.455Z,52.59
2023-04-23T18:10:08.684Z,52.72
2023-04-23T18:11:31.129Z,52.64
2023-04-23T18:12:53.534Z,52.82
2023-04-23T18:15:24.296Z,52.71
2023-04-23T18:16:49.455Z,52.55
2023-04-23T18:18:21.989Z,52.62
2023-04-23T18:20:50.910Z,52.63
2023-04-23T18:22:48.583Z,52.50
2023-04-23T18:25:01.011Z,52.41
2023-04-23T18:26:27.099Z,52.38
2023-04-23T18:27:51.511Z,52.44
2023-04-23T18:29:15.985Z,52.53
2023-04-23T18:30:41.384Z,52.47
2023-04-23T18:32:04.698Z,52.50
2023-04-23T18:33:48.484Z,52.43
2023-04-23T18:35:14.488Z,52.38
2023-04-23T18:38:39.718Z,52.16
2023-04-23T18:40:02.534Z,52.38
2023-04-23T18:41:29.175Z,52.26
2023-04-23T18:43:03.835Z,52.26
2023-04-23T18:44:31.804Z,52.21
2023-04-23T18:46:19.434Z,52.35
2023-04-23T18:47:56.325Z,52.30
2023-04-23T18:49:42.080Z,52.18
2023-04-23T18:51:32.819Z,52.24
2023-04-23T18:53:09.057Z,52.27
2023-04-23T18:54:46.122Z,52.34
2023-04-23T18:56:16.103Z,52.25
2023-04-23T19:00:03.672Z,52.19
2023-04-23T19:02:34.337Z,52.50
2023-04-23T19:04:47.792Z,52.31
2023-04-23T19:06:14.005Z,52.55
2023-04-23T19:07:58.062Z,52.53
2023-04-23T19:09:20.740Z,52.50
2023-04-23T19:10:48.455Z,52.56
2023-04-23T19:12:22.808Z,52.68
2023-04-23T19:13:45.911Z,52.91
2023-04-23T19:15:09.488Z,52.90
2023-04-23T19:16:32.176Z,52.99
2023-04-23T19:17:54.811Z,53.05
2023-04-23T19:19:39.766Z,53.21
2023-04-23T19:21:05.113Z,53.03
2023-04-23T19:22:30.005Z,53.04
2023-04-23T19:23:54.361Z,53.23
2023-04-23T19:25:30.234Z,53.08
2023-04-23T19:26:53.795Z,53.14
2023-04-23T19:28:24.808Z,53.21
2023-04-23T19:29:48.734Z,53.05
2023-04-23T19:31:14.219Z,52.98
2023-04-23T19:32:39.197Z,53.05
2023-04-23T19:34:01.911Z,53.30
2023-04-23T19:35:24.352Z,53.18
2023-04-23T19:36:47.033Z,53.19
2023-04-23T19:38:12.211Z,53.25
2023-04-23T19:40:02.834Z,53.26
2023-04-23T19:41:33.615Z,53.19
2023-04-23T19:42:58.412Z,53.11
2023-04-23T19:44:22.176Z,53.29
2023-04-23T19:45:47.634Z,53.44
2023-04-23T19:47:09.896Z,53.50
2023-04-23T19:48:39.696Z,53.58
2023-04-23T19:50:03.838Z,53.73
2023-04-23T19:51:33.007Z,53.59
2023-04-23T19:52:55.257Z,53.67
2023-04-23T19:54:20.477Z,53.75
2023-04-23T19:55:49.232Z,53.72
2023-04-23T19:57:11.976Z,53.80
2023-04-23T19:58:42.143Z,53.94
2023-04-23T20:00:20.168Z,53.99
2023-04-23T20:01:42.855Z,54.08
2023-04-23T20:03:05.244Z,54.09
2023-04-23T20:04:30.577Z,54.36
2023-04-23T20:06:02.252Z,54.13
2023-04-23T20:07:40.712Z,54.38
2023-04-23T20:09:16.245Z,54.35
2023-04-23T20:10:38.786Z,54.47
2023-04-23T20:12:01.986Z,54.56
2023-04-23T20:13:32.770Z,54.57
2023-04-23T20:14:56.463Z,54.64
2023-04-23T20:16:20.390Z,54.65
2023-04-23T20:17:43.017Z,54.62
2023-04-23T20:19:11.077Z,54.78
2023-04-23T20:20:36.848Z,54.62
2023-04-23T20:22:01.405Z,54.92
2023-04-23T20:23:37.053Z,54.97
2023-04-23T20:25:02.009Z,54.79
2023-04-23T20:26:24.762Z,54.99
2023-04-23T20:27:46.990Z,55.04
2023-04-23T20:29:09.564Z,54.99
2023-04-23T20:30:37.204Z,55.12
2023-04-23T20:31:59.620Z,55.01
2023-04-23T20:33:27.739Z,55.19
2023-04-23T20:34:59.403Z,55.06
2023-04-23T20:36:27.819Z,55.02
2023-04-23T20:37:52.583Z,55.06
2023-04-23T20:39:27.049Z,54.99
2023-04-23T20:40:50.385Z,55.08
2023-04-23T20:42:51.829Z,54.94
2023-04-23T20:44:28.307Z,54.98
2023-04-23T20:45:56.468Z,55.26
2023-04-23T20:47:55.768Z,55.30
2023-04-23T20:49:52.844Z,55.04
2023-04-23T20:51:40.696Z,55.05
2023-04-23T20:53:09.646Z,55.03
2023-04-23T20:54:46.265Z,55.41
2023-04-23T20:56:08.523Z,55.41
2023-04-23T20:57:35.380Z,55.52
2023-04-23T20:59:07.295Z,55.53
2023-04-23T21:00:51.439Z,55.76